createdAt,value
2018-05-01T00:02:15.161Z,43.50
2018-05-01T00:04:43.585Z,43.70
2018-05-01T00:07:12.211Z,43.10
2018-05-01T00:09:40.558Z,43.70
2018-05-01T00:15:27.259Z,43.30
2018-05-01T00:17:56.344Z,43.60
2018-05-01T00:20:24.725Z,43.50
2018-05-01T00:22:53.048Z,43.80
2018-05-01T00:25:21.447Z,43.70
2018-05-01T00:27:49.806Z,43.60
2018-05-01T00:30:18.128Z,43.00
2018-05-01T00:32:46.467Z,43.10
2018-05-01T00:35:14.828Z,43.50
2018-05-01T00:37:43.170Z,44.10
2018-05-01T00:40:11.545Z,43.70
2018-05-01T00:42:40.644Z,44.00
2018-05-01T00:45:09.800Z,43.60
2018-05-01T00:47:38.189Z,43.50
2018-05-01T00:50:06.548Z,42.80
2018-05-01T00:52:47.364Z,42.70
2018-05-01T00:55:15.670Z,42.60
2018-05-01T00:57:44.006Z,42.40
2018-05-01T01:00:12.364Z,42.40
2018-05-01T01:02:40.674Z,42.40
2018-05-01T01:05:09.048Z,42.20
2018-05-01T01:07:37.409Z,42.20
2018-05-01T01:10:06.527Z,42.10
2018-05-01T01:21:44.741Z,42.20
2018-05-01T01:24:13.053Z,42.50
2018-05-01T01:26:41.435Z,42.40
2018-05-01T01:29:09.824Z,42.20
2018-05-01T01:31:38.151Z,42.50
2018-05-01T01:34:06.495Z,42.50
2018-05-01T01:36:34.455Z,42.00
2018-05-01T01:39:02.241Z,42.10
2018-05-01T01:41:30.098Z,42.20
2018-05-01T01:43:57.972Z,42.10
2018-05-01T01:46:25.855Z,43.10
2018-05-01T01:48:54.248Z,42.90
2018-05-01T01:51:22.100Z,42.30
2018-05-01T01:53:49.992Z,42.60
2018-05-01T01:56:18.592Z,42.70
2018-05-01T01:58:46.452Z,41.90
2018-05-01T02:01:14.299Z,41.80
2018-05-01T02:03:42.184Z,42.30
2018-05-01T02:06:10.031Z,41.60
2018-05-01T02:08:37.889Z,41.70
2018-05-01T02:11:05.743Z,41.70
2018-05-01T02:13:58.670Z,42.00
2018-05-01T02:16:26.535Z,42.00
2018-05-01T02:18:54.381Z,41.60
2018-05-01T02:21:22.999Z,41.00
2018-05-01T02:23:50.893Z,41.00
2018-05-01T02:26:18.730Z,40.90
2018-05-01T02:28:46.585Z,41.00
2018-05-01T02:31:14.456Z,39.80
2018-05-01T02:33:42.267Z,39.80
2018-05-01T02:36:10.103Z,39.60
2018-05-01T02:38:37.981Z,39.70
2018-05-01T02:41:05.838Z,40.50
2018-05-01T02:43:33.687Z,41.00
2018-05-01T02:46:01.504Z,40.50
2018-05-01T02:48:30.095Z,40.30
2018-05-01T02:50:57.962Z,40.20
2018-05-01T02:53:25.785Z,40.40
2018-05-01T02:55:54.416Z,39.90
2018-05-01T02:58:22.277Z,39.80
2018-05-01T03:00:50.924Z,39.50
2018-05-01T03:03:18.777Z,39.40
2018-05-01T03:05:46.635Z,39.20
2018-05-01T03:08:15.293Z,38.70
2018-05-01T03:10:43.123Z,38.60
2018-05-01T03:13:26.785Z,39.10
2018-05-01T03:15:54.620Z,39.10
2018-05-01T03:18:22.436Z,39.20
2018-05-01T03:20:51.069Z,39.80
2018-05-01T03:23:18.881Z,39.80
2018-05-01T03:25:46.712Z,39.90
2018-05-01T03:28:14.559Z,40.10
2018-05-01T03:30:42.383Z,40.00
2018-05-01T03:33:10.214Z,40.10
2018-05-01T03:35:38.058Z,39.80
2018-05-01T03:38:05.936Z,39.70
2018-05-01T03:40:33.780Z,39.50
2018-05-01T03:43:01.675Z,40.20
2018-05-01T03:45:29.564Z,40.10
2018-05-01T03:47:58.171Z,40.60
2018-05-01T03:50:26.015Z,40.60
2018-05-01T03:52:53.895Z,40.00
2018-05-01T03:55:21.764Z,40.30
2018-05-01T03:57:49.736Z,40.00
2018-05-01T04:00:17.588Z,40.60
2018-05-01T04:02:46.196Z,40.70
2018-05-01T04:05:14.039Z,40.60
2018-05-01T04:07:41.876Z,40.20
2018-05-01T04:10:09.723Z,39.80
2018-05-01T04:12:48.510Z,39.70
2018-05-01T04:15:16.344Z,39.80
2018-05-01T04:17:44.247Z,40.00
2018-05-01T04:20:12.927Z,40.50
2018-05-01T04:22:41.544Z,40.70
2018-05-01T04:25:10.152Z,40.40
2018-05-01T04:27:38.773Z,40.60
2018-05-01T04:30:06.732Z,40.50
2018-05-01T04:32:35.330Z,40.60
2018-05-01T04:35:03.901Z,40.50
2018-05-01T04:37:31.755Z,40.40
2018-05-01T04:39:59.584Z,40.40
2018-05-01T04:42:27.410Z,41.30
2018-05-01T04:44:55.436Z,41.40
2018-05-01T04:47:23.263Z,41.20
2018-05-01T04:49:51.091Z,40.90
2018-05-01T04:52:19.180Z,41.50
2018-05-01T04:54:47.027Z,41.90
2018-05-01T04:57:14.875Z,41.30
2018-05-01T04:59:42.747Z,41.30
2018-05-01T05:02:10.596Z,41.50
2018-05-01T05:04:39.207Z,41.80
2018-05-01T05:07:07.096Z,41.80
2018-05-01T05:09:35.819Z,42.20
2018-05-01T05:15:28.799Z,42.00
2018-05-01T05:17:57.020Z,42.30
2018-05-01T05:20:25.639Z,42.80
2018-05-01T05:22:53.462Z,42.80
2018-05-01T05:25:21.355Z,43.60
2018-05-01T05:27:50.052Z,43.50
2018-05-01T05:30:18.071Z,43.70
2018-05-01T05:32:45.900Z,43.10
2018-05-01T05:35:13.752Z,43.50
2018-05-01T05:37:41.667Z,44.40
2018-05-01T05:40:09.527Z,44.40
2018-05-01T05:42:37.384Z,43.80
2018-05-01T05:45:05.972Z,43.80
2018-05-01T05:47:33.917Z,43.80
2018-05-01T05:50:01.807Z,44.30
2018-05-01T05:52:30.383Z,43.90
2018-05-01T05:54:58.227Z,43.80
2018-05-01T05:57:26.053Z,43.80
2018-05-01T05:59:53.948Z,44.30
2018-05-01T06:02:21.756Z,44.30
2018-05-01T06:04:49.625Z,45.60
2018-05-01T06:07:17.443Z,45.30
2018-05-01T06:09:45.267Z,45.20
2018-05-01T06:12:13.149Z,45.30
2018-05-01T06:14:41.790Z,44.20
2018-05-01T06:17:10.412Z,44.40
2018-05-01T06:19:38.470Z,44.40
2018-05-01T06:22:06.427Z,44.60
2018-05-01T06:24:34.271Z,43.70
2018-05-01T06:27:02.157Z,44.10
2018-05-01T06:29:30.040Z,44.10
2018-05-01T06:31:57.946Z,43.60
2018-05-01T06:34:26.230Z,44.80
2018-05-01T06:36:54.026Z,43.60
2018-05-01T06:39:22.590Z,43.60
2018-05-01T06:41:50.977Z,43.60
2018-05-01T06:44:18.811Z,43.20
2018-05-01T06:46:47.382Z,44.00
2018-05-01T06:49:15.239Z,44.00
2018-05-01T06:51:43.051Z,44.30
2018-05-01T06:54:10.887Z,42.90
2018-05-01T06:56:38.729Z,43.20
2018-05-01T06:59:07.293Z,43.60
2018-05-01T07:01:35.583Z,43.50
2018-05-01T07:04:03.395Z,42.80
2018-05-01T07:06:31.195Z,42.80
2018-05-01T07:08:59.033Z,43.10
2018-05-01T07:11:26.863Z,43.80
2018-05-01T07:13:55.450Z,43.80
2018-05-01T07:16:24.044Z,44.70
2018-05-01T07:18:51.875Z,44.20
2018-05-01T07:21:19.744Z,43.40
2018-05-01T07:23:47.583Z,42.30
2018-05-01T07:26:15.496Z,42.40
2018-05-01T07:28:44.091Z,42.30
2018-05-01T07:31:12.662Z,42.10
2018-05-01T07:33:40.507Z,42.00
2018-05-01T07:36:08.323Z,39.10
2018-05-01T07:38:36.373Z,39.20
2018-05-01T07:41:04.184Z,38.20
2018-05-01T07:43:31.996Z,37.70
2018-05-01T07:45:59.830Z,38.60
2018-05-01T07:48:27.643Z,38.10
2018-05-01T07:50:55.484Z,37.80
2018-05-01T07:53:23.312Z,38.20
2018-05-01T07:55:51.136Z,37.70
2018-05-01T07:58:19.730Z,38.80
2018-05-01T08:00:49.255Z,38.20
2018-05-01T08:03:17.115Z,38.20
2018-05-01T08:05:45.023Z,39.40
2018-05-01T08:08:12.907Z,38.20
2018-05-01T08:10:40.777Z,37.80
2018-05-01T08:13:08.597Z,37.90
2018-05-01T08:15:36.514Z,38.20
2018-05-01T08:18:04.354Z,39.10
2018-05-01T08:20:32.269Z,38.80
2018-05-01T08:23:00.100Z,38.80
2018-05-01T08:25:27.963Z,38.50
2018-05-01T08:27:55.839Z,39.10
2018-05-01T08:30:23.739Z,40.30
2018-05-01T08:32:51.564Z,39.40
2018-05-01T08:35:19.385Z,37.90
2018-05-01T08:37:47.255Z,38.20
2018-05-01T08:40:15.089Z,38.90
2018-05-01T08:42:43.750Z,38.90
2018-05-01T08:45:11.661Z,38.90
2018-05-01T08:47:39.450Z,38.20
2018-05-01T08:50:07.284Z,39.00
2018-05-01T08:52:35.112Z,38.50
2018-05-01T08:55:02.966Z,39.10
2018-05-01T08:57:30.846Z,38.00
2018-05-01T08:59:58.691Z,37.40
2018-05-01T09:02:26.526Z,37.10
2018-05-01T09:04:55.017Z,38.20
2018-05-01T09:07:22.908Z,37.20
2018-05-01T09:09:50.731Z,37.10
2018-05-01T09:12:23.999Z,37.80
2018-05-01T09:14:51.874Z,37.70
2018-05-01T09:17:19.683Z,38.00
2018-05-01T09:19:47.503Z,38.20
2018-05-01T09:22:15.336Z,38.90
2018-05-01T09:24:43.181Z,37.90
2018-05-01T09:27:11.082Z,37.50
2018-05-01T09:29:38.923Z,37.70
2018-05-01T09:32:06.846Z,37.70
2018-05-01T09:34:34.708Z,38.00
2018-05-01T09:37:02.647Z,37.40
2018-05-01T09:39:30.464Z,37.20
2018-05-01T09:41:58.313Z,35.60
2018-05-01T09:44:26.171Z,36.30
2018-05-01T09:50:09.016Z,36.60
2018-05-01T09:52:44.699Z,36.80
2018-05-01T09:55:19.897Z,35.70
2018-05-01T09:57:54.255Z,35.60
2018-05-01T10:00:28.744Z,36.00
2018-05-01T10:03:02.964Z,36.80
2018-05-01T10:05:37.417Z,34.90
2018-05-01T10:08:11.693Z,35.10
2018-05-01T10:10:46.015Z,35.70
2018-05-01T10:13:14.292Z,34.50
2018-05-01T10:15:42.579Z,35.30
2018-05-01T10:18:10.893Z,36.00
2018-05-01T10:20:39.179Z,34.90
2018-05-01T10:23:08.235Z,34.50
2018-05-01T10:25:37.956Z,34.40
2018-05-01T10:28:31.333Z,34.60
2018-05-01T10:30:59.801Z,34.90
2018-05-01T10:33:28.116Z,34.90
2018-05-01T10:35:57.209Z,35.10
2018-05-01T10:38:25.499Z,34.90
2018-05-01T10:40:54.578Z,35.10
2018-05-01T10:43:23.632Z,34.80
2018-05-01T10:45:51.920Z,34.80
2018-05-01T10:48:20.252Z,36.30
2018-05-01T10:50:48.543Z,35.30
2018-05-01T10:53:16.837Z,35.90
2018-05-01T10:55:45.992Z,33.70
2018-05-01T10:58:15.035Z,35.60
2018-05-01T11:00:43.390Z,35.50
2018-05-01T11:03:11.699Z,34.60
2018-05-01T11:05:40.069Z,34.00
2018-05-01T11:08:08.387Z,33.10
2018-05-01T11:10:36.705Z,32.10
2018-05-01T11:13:05.028Z,32.20
2018-05-01T11:15:34.105Z,33.60
2018-05-01T11:18:03.140Z,32.00
2018-05-01T11:20:31.559Z,32.20
2018-05-01T11:22:59.878Z,32.10
2018-05-01T11:25:28.985Z,30.50
2018-05-01T11:27:57.381Z,30.40
2018-05-01T11:30:25.700Z,31.40
2018-05-01T11:32:54.036Z,32.40
2018-05-01T11:35:22.753Z,31.70
2018-05-01T11:37:51.067Z,31.30
2018-05-01T11:40:19.710Z,32.60
2018-05-01T11:42:48.002Z,31.10
2018-05-01T11:45:17.052Z,30.60
2018-05-01T11:47:46.330Z,30.60
2018-05-01T11:50:14.703Z,31.30
2018-05-01T11:52:44.162Z,29.20
2018-05-01T11:55:13.156Z,29.20
2018-05-01T11:57:41.504Z,28.90
2018-05-01T12:00:09.885Z,31.00
2018-05-01T12:02:38.271Z,29.30
2018-05-01T12:05:07.491Z,31.20
2018-05-01T12:07:35.807Z,30.30
2018-05-01T12:10:04.203Z,28.90
2018-05-01T12:12:32.673Z,28.70
2018-05-01T12:15:00.963Z,29.00
2018-05-01T12:17:29.281Z,29.90
2018-05-01T12:19:58.531Z,31.20
2018-05-01T12:22:27.674Z,29.80
2018-05-01T12:24:55.977Z,29.80
2018-05-01T12:27:24.287Z,29.10
2018-05-01T12:29:52.890Z,27.60
2018-05-01T12:32:21.474Z,28.40
2018-05-01T12:34:51.639Z,27.80
2018-05-01T12:37:21.127Z,29.20
2018-05-01T12:39:50.184Z,30.30
2018-05-01T12:42:18.769Z,30.20
2018-05-01T12:44:47.062Z,30.00
2018-05-01T12:47:15.377Z,29.70
2018-05-01T12:49:43.687Z,30.10
2018-05-01T12:52:12.058Z,28.50
2018-05-01T12:54:40.573Z,29.40
2018-05-01T12:57:08.937Z,28.10
2018-05-01T12:59:37.282Z,29.00
2018-05-01T13:02:05.840Z,29.00
2018-05-01T13:04:34.133Z,28.30
2018-05-01T13:07:02.446Z,28.40
2018-05-01T13:09:30.969Z,28.00
2018-05-01T13:11:59.263Z,26.70
2018-05-01T13:14:28.249Z,27.00
2018-05-01T13:16:56.596Z,26.90
2018-05-01T13:19:25.761Z,28.00
2018-05-01T13:22:06.212Z,27.30
2018-05-01T13:24:36.371Z,27.30
2018-05-01T13:27:05.325Z,25.80
2018-05-01T13:29:33.929Z,27.40
2018-05-01T13:32:04.291Z,25.90
2018-05-01T13:34:33.155Z,25.90
2018-05-01T13:37:07.928Z,29.20
2018-05-01T13:39:47.595Z,29.30
2018-05-01T13:42:17.903Z,28.50
2018-05-01T13:44:47.128Z,28.00
2018-05-01T13:47:15.719Z,28.80
2018-05-01T13:49:44.796Z,26.40
2018-05-01T13:52:13.574Z,26.40
2018-05-01T13:54:47.427Z,27.20
2018-05-01T13:57:17.517Z,26.20
2018-05-01T13:59:46.256Z,26.40
2018-05-01T14:02:15.419Z,27.00
2018-05-01T14:04:44.881Z,27.20
2018-05-01T14:07:15.228Z,27.10
2018-05-01T14:09:44.839Z,28.20
2018-05-01T14:12:14.343Z,28.40
2018-05-01T14:14:42.647Z,28.40
2018-05-01T14:17:15.376Z,27.60
2018-05-01T14:19:44.467Z,26.50
2018-05-01T14:22:13.778Z,27.10
2018-05-01T14:24:44.505Z,27.00
2018-05-01T14:27:13.801Z,26.90
2018-05-01T14:29:42.153Z,27.00
2018-05-01T14:32:11.122Z,27.10
2018-05-01T14:34:40.365Z,26.50
2018-05-01T14:37:08.791Z,27.60
2018-05-01T14:39:39.299Z,26.70
2018-05-01T14:42:09.372Z,27.20
2018-05-01T14:44:37.766Z,27.00
2018-05-01T14:47:06.690Z,28.70
2018-05-01T14:49:36.852Z,27.60
2018-05-01T14:52:10.486Z,27.60
2018-05-01T14:54:40.398Z,28.10
2018-05-01T14:57:10.334Z,27.40
2018-05-01T14:59:39.334Z,27.40
2018-05-01T15:02:07.894Z,26.10
2018-05-01T15:04:36.969Z,28.50
2018-05-01T15:07:06.931Z,29.10
2018-05-01T15:09:36.818Z,28.00
2018-05-01T15:12:06.362Z,27.80
2018-05-01T15:14:35.500Z,27.80
2018-05-01T15:17:04.164Z,27.30
2018-05-01T15:19:33.029Z,27.80
2018-05-01T15:22:01.815Z,26.50
2018-05-01T15:24:31.033Z,27.00
2018-05-01T15:27:00.400Z,26.70
2018-05-01T15:29:28.974Z,27.10
2018-05-01T15:31:57.600Z,26.10
2018-05-01T15:34:26.215Z,26.90
2018-05-01T15:36:54.920Z,26.50
2018-05-01T15:39:24.725Z,26.30
2018-05-01T15:41:56.452Z,26.30
2018-05-01T15:44:25.669Z,26.50
2018-05-01T15:46:58.534Z,26.40
2018-05-01T15:49:27.273Z,27.00
2018-05-01T15:51:55.570Z,26.20
2018-05-01T15:54:23.926Z,26.10
2018-05-01T15:56:52.213Z,25.30
2018-05-01T15:59:20.535Z,26.70
2018-05-01T16:01:49.588Z,26.60
2018-05-01T16:04:18.177Z,26.40
2018-05-01T16:06:46.558Z,25.90
2018-05-01T16:09:15.566Z,27.00
2018-05-01T16:11:43.884Z,27.00
2018-05-01T16:14:12.327Z,26.80
2018-05-01T16:16:41.303Z,26.90
2018-05-01T16:19:09.617Z,26.80
2018-05-01T16:21:37.975Z,27.90
2018-05-01T16:24:11.860Z,28.30
2018-05-01T16:26:41.860Z,27.70
2018-05-01T16:29:11.418Z,26.30
2018-05-01T16:31:42.501Z,26.90
2018-05-01T16:34:10.863Z,26.80
2018-05-01T16:36:40.658Z,26.90
2018-05-01T16:39:09.748Z,28.10
2018-05-01T16:41:39.876Z,27.80
2018-05-01T16:44:08.321Z,27.80
2018-05-01T16:46:45.645Z,27.80
2018-05-01T16:52:17.351Z,27.70
2018-05-01T16:54:45.674Z,27.70
2018-05-01T16:57:15.025Z,27.70
2018-05-01T16:59:43.422Z,27.70
2018-05-01T17:02:11.798Z,27.80
2018-05-01T17:04:40.141Z,27.80
2018-05-01T17:07:08.501Z,27.80
2018-05-01T17:09:36.843Z,28.20
2018-05-01T17:12:05.992Z,28.90
2018-05-01T17:14:34.596Z,28.80
2018-05-01T17:17:03.034Z,27.80
2018-05-01T17:19:31.326Z,29.00
2018-05-01T17:21:59.811Z,28.70
2018-05-01T17:24:28.131Z,28.10
2018-05-01T17:26:56.479Z,28.30
2018-05-01T17:29:24.829Z,27.60
2018-05-01T17:31:53.112Z,27.60
2018-05-01T17:34:21.596Z,28.90
2018-05-01T17:36:50.004Z,28.50
2018-05-01T17:39:18.308Z,28.30
2018-05-01T17:41:46.612Z,28.70
2018-05-01T17:44:14.941Z,28.70
2018-05-01T17:46:43.280Z,27.80
2018-05-01T17:49:11.596Z,29.00
2018-05-01T17:51:40.362Z,28.80
2018-05-01T17:54:08.726Z,28.80
2018-05-01T17:56:37.068Z,29.60
2018-05-01T17:59:05.534Z,29.10
2018-05-01T18:01:34.693Z,29.60
2018-05-01T18:04:03.157Z,29.50
2018-05-01T18:06:31.573Z,30.10
2018-05-01T18:09:00.784Z,30.50
2018-05-01T18:11:30.095Z,30.80
2018-05-01T18:13:58.570Z,30.80
2018-05-01T18:16:26.930Z,30.20
2018-05-01T18:18:56.029Z,31.20
2018-05-01T18:21:24.408Z,31.20
2018-05-01T18:23:53.508Z,33.00
2018-05-01T18:26:22.565Z,35.60
2018-05-01T18:28:51.002Z,35.50
2018-05-01T18:31:19.486Z,36.80
2018-05-01T18:33:47.811Z,37.00
2018-05-01T18:36:17.016Z,37.80
2018-05-01T18:38:45.485Z,37.70
2018-05-01T18:41:15.600Z,38.70
2018-05-01T18:43:44.698Z,39.80
2018-05-01T18:46:13.125Z,39.70
2018-05-01T18:48:41.458Z,40.70
2018-05-01T18:51:10.942Z,41.30
2018-05-01T18:53:39.262Z,41.20
2018-05-01T18:56:07.823Z,41.10
2018-05-01T18:58:36.924Z,41.20
2018-05-01T19:01:06.071Z,41.50
2018-05-01T19:03:34.585Z,41.50
2018-05-01T19:06:02.922Z,42.40
2018-05-01T19:08:31.244Z,43.00
2018-05-01T19:11:00.483Z,42.90
2018-05-01T19:13:28.786Z,42.80
2018-05-01T19:15:57.104Z,42.80
2018-05-01T19:18:25.439Z,42.20
2018-05-01T19:20:53.797Z,43.00
2018-05-01T19:23:22.106Z,43.50
2018-05-01T19:25:50.397Z,43.50
2018-05-01T19:28:19.748Z,42.70
2018-05-01T19:30:48.102Z,42.60
2018-05-01T19:33:16.905Z,42.60
2018-05-01T19:35:45.361Z,42.60
2018-05-01T19:38:13.693Z,42.70
2018-05-01T19:40:42.191Z,42.70
2018-05-01T19:43:11.373Z,42.60
2018-05-01T19:45:39.692Z,42.60
2018-05-01T19:48:08.006Z,42.60
2018-05-01T19:50:36.329Z,42.60
2018-05-01T19:53:05.413Z,45.00
2018-05-01T19:55:34.786Z,45.10
2018-05-01T19:58:03.655Z,45.10
2018-05-01T20:00:32.039Z,45.20
2018-05-01T20:03:00.454Z,45.10
2018-05-01T20:05:29.547Z,44.20
2018-05-01T20:07:58.728Z,44.70
2018-05-01T20:10:28.044Z,45.20
2018-05-01T20:12:57.105Z,45.60
2018-05-01T20:15:27.095Z,45.50
2018-05-01T20:17:55.440Z,45.80
2018-05-01T20:20:24.510Z,45.90
2018-05-01T20:22:52.816Z,45.80
2018-05-01T20:25:21.922Z,45.90
2018-05-01T20:27:50.720Z,45.80
2018-05-01T20:30:19.059Z,45.60
2018-05-01T20:32:47.404Z,45.90
2018-05-01T20:35:15.681Z,46.40
2018-05-01T20:37:43.984Z,46.10
2018-05-01T20:40:13.041Z,45.30
2018-05-01T20:42:41.336Z,45.20
2018-05-01T20:45:09.648Z,45.60
2018-05-01T20:47:38.698Z,46.60
2018-05-01T20:50:07.009Z,46.60
2018-05-01T20:52:35.299Z,47.20
2018-05-01T20:55:03.598Z,47.20
2018-05-01T20:57:31.899Z,47.30
2018-05-01T21:00:00.240Z,47.30
2018-05-01T21:02:28.538Z,47.30
2018-05-01T21:04:56.863Z,47.00
2018-05-01T21:07:25.155Z,47.70
2018-05-01T21:09:53.460Z,47.80
2018-05-01T21:12:21.754Z,47.70
2018-05-01T21:14:51.017Z,47.40
2018-05-01T21:17:19.328Z,47.40
2018-05-01T21:19:47.641Z,47.40
2018-05-01T21:22:15.967Z,46.90
2018-05-01T21:24:44.250Z,47.10
2018-05-01T21:27:12.522Z,48.60
2018-05-01T21:29:40.839Z,47.60
2018-05-01T21:32:09.891Z,47.30
2018-05-01T21:34:39.005Z,47.10
2018-05-01T21:37:07.306Z,47.10
2018-05-01T21:39:35.583Z,47.50
2018-05-01T21:42:03.867Z,47.40
2018-05-01T21:44:32.164Z,47.20
2018-05-01T21:47:00.438Z,47.50
2018-05-01T21:49:28.881Z,47.10
2018-05-01T21:51:58.017Z,48.30
2018-05-01T21:54:26.305Z,48.30
2018-05-01T21:56:54.601Z,48.50
2018-05-01T21:59:22.900Z,49.00
2018-05-01T22:01:51.962Z,49.50
2018-05-01T22:04:20.256Z,49.40
2018-05-01T22:06:49.420Z,49.00
2018-05-01T22:09:17.726Z,48.80
2018-05-01T22:11:46.777Z,49.40
2018-05-01T22:14:15.091Z,49.40
2018-05-01T22:16:44.198Z,49.30
2018-05-01T22:19:13.223Z,48.90
2018-05-01T22:21:41.536Z,48.70
2018-05-01T22:24:09.825Z,48.30
2018-05-01T22:26:38.901Z,49.10
2018-05-01T22:29:07.978Z,49.60
2018-05-01T22:31:36.376Z,49.00
2018-05-01T22:34:04.971Z,49.40
2018-05-01T22:36:33.272Z,49.50
2018-05-01T22:39:01.555Z,49.40
2018-05-01T22:41:29.857Z,49.70
2018-05-01T22:43:58.182Z,49.80
2018-05-01T22:46:27.238Z,50.20
2018-05-01T22:48:55.539Z,50.20
2018-05-01T22:51:24.601Z,50.60
2018-05-01T22:53:52.907Z,50.60
2018-05-01T22:56:21.190Z,50.80
2018-05-01T22:58:50.239Z,51.10
2018-05-01T23:01:18.525Z,51.00
2018-05-01T23:03:46.815Z,51.10
2018-05-01T23:06:15.112Z,50.50
2018-05-01T23:08:44.443Z,50.30
2018-05-01T23:11:12.739Z,50.30
2018-05-01T23:13:41.021Z,49.80
2018-05-01T23:16:09.319Z,50.30
2018-05-01T23:18:37.608Z,50.90
2018-05-01T23:21:06.059Z,50.80
2018-05-01T23:23:34.449Z,52.10
2018-05-01T23:26:02.732Z,51.30
2018-05-01T23:28:31.802Z,51.90
2018-05-01T23:31:00.080Z,50.90
2018-05-01T23:33:28.476Z,50.20
2018-05-01T23:35:57.793Z,50.60
2018-05-01T23:38:26.859Z,50.90
2018-05-01T23:40:55.118Z,50.90
2018-05-01T23:43:23.529Z,50.90
2018-05-01T23:45:51.848Z,50.80
2018-05-01T23:48:20.156Z,52.40
2018-05-01T23:50:48.435Z,52.50
2018-05-01T23:53:16.719Z,50.70
2018-05-01T23:55:45.249Z,50.30
2018-05-01T23:58:13.541Z,50.20
